createdAt,value
2022-11-24T00:01:21.066Z,3.50
2022-11-24T00:03:56.719Z,3.50
2022-11-24T00:06:25.586Z,3.50
2022-11-24T00:08:54.210Z,3.50
2022-11-24T00:11:24.882Z,3.50
2022-11-24T00:13:53.082Z,3.50
2022-11-24T00:16:23.211Z,3.50
2022-11-24T00:18:52.959Z,3.50
2022-11-24T00:21:22.577Z,3.50
2022-11-24T00:23:51.200Z,3.50
2022-11-24T00:26:21.634Z,3.50
2022-11-24T00:28:51.418Z,3.50
2022-11-24T00:31:21.268Z,3.50
2022-11-24T00:33:51.459Z,3.50
2022-11-24T00:36:22.540Z,3.60
2022-11-24T00:38:54.588Z,3.60
2022-11-24T00:41:22.737Z,3.60
2022-11-24T00:43:51.087Z,3.60
2022-11-24T00:46:19.814Z,3.60
2022-11-24T00:48:48.128Z,3.60
2022-11-24T00:51:17.961Z,3.60
2022-11-24T00:53:47.488Z,3.60
2022-11-24T00:56:16.087Z,3.60
2022-11-24T00:58:44.276Z,3.60
2022-11-24T01:01:14.465Z,3.60
2022-11-24T01:03:43.250Z,3.60
2022-11-24T01:06:14.310Z,3.60
2022-11-24T01:08:43.135Z,3.60
2022-11-24T01:11:15.093Z,3.60
2022-11-24T01:13:44.573Z,3.60
2022-11-24T01:16:17.942Z,3.60
2022-11-24T01:18:46.585Z,3.60
2022-11-24T01:21:15.442Z,3.60
2022-11-24T01:23:44.052Z,3.60
2022-11-24T01:26:15.285Z,3.60
2022-11-24T01:28:47.240Z,3.60
2022-11-24T01:31:17.216Z,3.60
2022-11-24T01:33:45.394Z,3.60
2022-11-24T01:36:13.576Z,3.60
2022-11-24T01:38:41.837Z,3.60
2022-11-24T01:41:14.405Z,3.60
2022-11-24T01:43:42.736Z,3.60
2022-11-24T01:46:19.980Z,3.60
2022-11-24T01:48:52.649Z,3.70
2022-11-24T01:51:24.849Z,3.70
2022-11-24T01:53:56.646Z,3.70
2022-11-24T01:56:26.528Z,3.70
2022-11-24T01:58:58.404Z,3.70
2022-11-24T02:01:26.882Z,3.70
2022-11-24T02:03:55.191Z,3.70
2022-11-24T02:06:27.718Z,3.70
2022-11-24T02:08:59.740Z,3.80
2022-11-24T02:11:32.325Z,3.80
2022-11-24T02:14:01.145Z,3.80
2022-11-24T02:16:30.945Z,3.80
2022-11-24T02:18:59.447Z,3.80
2022-11-24T02:21:27.648Z,3.80
2022-11-24T02:24:03.554Z,3.90
2022-11-24T02:26:41.209Z,3.90
2022-11-24T02:29:10.499Z,3.90
2022-11-24T02:31:39.008Z,3.90
2022-11-24T02:34:07.232Z,3.90
2022-11-24T02:36:35.453Z,4.00
2022-11-24T02:39:03.911Z,4.00
2022-11-24T02:41:32.213Z,4.00
2022-11-24T02:44:03.329Z,4.00
2022-11-24T02:46:31.487Z,4.00
2022-11-24T02:48:59.738Z,4.00
2022-11-24T02:51:28.362Z,4.10
2022-11-24T02:53:56.632Z,4.10
2022-11-24T02:56:24.751Z,4.10
2022-11-24T02:58:52.989Z,4.10
2022-11-24T03:01:22.654Z,4.20
2022-11-24T03:03:50.851Z,4.20
2022-11-24T03:06:21.633Z,4.20
2022-11-24T03:08:50.117Z,4.20
2022-11-24T03:11:18.342Z,4.20
2022-11-24T03:13:46.515Z,4.20
2022-11-24T03:16:14.768Z,4.20
2022-11-24T03:18:44.309Z,4.20
2022-11-24T03:21:12.592Z,4.20
2022-11-24T03:23:41.277Z,4.20
2022-11-24T03:26:10.269Z,4.20
2022-11-24T03:28:38.544Z,4.30
2022-11-24T03:31:07.641Z,4.30
2022-11-24T03:33:36.335Z,4.30
2022-11-24T03:36:07.396Z,4.30
2022-11-24T03:38:35.534Z,4.30
2022-11-24T03:41:03.745Z,4.30
2022-11-24T03:43:31.760Z,4.30
2022-11-24T03:45:59.984Z,4.30
2022-11-24T03:48:28.057Z,4.30
2022-11-24T03:50:57.670Z,4.30
2022-11-24T03:53:28.570Z,4.30
2022-11-24T03:55:56.653Z,4.30
2022-11-24T03:58:25.299Z,4.30
2022-11-24T04:00:54.736Z,4.30
2022-11-24T04:03:23.669Z,4.30
2022-11-24T04:05:52.003Z,4.30
2022-11-24T04:08:20.582Z,4.40
2022-11-24T04:10:53.043Z,4.40
2022-11-24T04:13:22.012Z,4.40
2022-11-24T04:15:50.362Z,4.40
2022-11-24T04:18:19.336Z,4.40
2022-11-24T04:20:49.756Z,4.40
2022-11-24T04:23:18.305Z,4.40
2022-11-24T04:25:46.404Z,4.40
2022-11-24T04:28:15.972Z,4.50
2022-11-24T04:30:44.728Z,4.40
2022-11-24T04:33:13.929Z,4.40
2022-11-24T04:35:42.127Z,4.50
2022-11-24T04:38:10.406Z,4.50
2022-11-24T04:40:39.243Z,4.50
2022-11-24T04:43:07.420Z,4.50
2022-11-24T04:45:36.913Z,4.60
2022-11-24T04:48:05.407Z,4.50
2022-11-24T04:50:33.513Z,4.50
2022-11-24T04:53:02.164Z,4.50
2022-11-24T04:55:30.530Z,4.50
2022-11-24T04:57:58.570Z,4.60
2022-11-24T05:00:26.646Z,4.60
2022-11-24T05:02:56.250Z,4.60
2022-11-24T05:05:24.421Z,4.60
2022-11-24T05:07:52.508Z,4.60
2022-11-24T05:10:38.816Z,4.60
2022-11-24T05:13:10.397Z,4.60
2022-11-24T05:15:39.727Z,4.60
2022-11-24T05:18:11.736Z,4.60
2022-11-24T05:20:40.016Z,4.60
2022-11-24T05:23:09.532Z,4.60
2022-11-24T05:25:37.914Z,4.60
2022-11-24T05:28:08.856Z,4.60
2022-11-24T05:30:39.094Z,4.60
2022-11-24T05:33:11.536Z,4.50
2022-11-24T05:35:39.742Z,4.50
2022-11-24T05:38:07.816Z,4.50
2022-11-24T05:40:35.937Z,4.50
2022-11-24T05:43:05.199Z,4.50
2022-11-24T05:45:33.256Z,4.50
2022-11-24T05:48:06.425Z,4.50
2022-11-24T05:50:36.237Z,4.60
2022-11-24T05:53:05.189Z,4.60
2022-11-24T05:55:33.676Z,4.60
2022-11-24T05:58:03.070Z,4.60
2022-11-24T06:00:31.732Z,4.70
2022-11-24T06:03:00.663Z,4.70
2022-11-24T06:05:29.952Z,4.70
2022-11-24T06:08:00.509Z,4.70
2022-11-24T06:10:29.704Z,4.70
2022-11-24T06:12:58.114Z,4.80
2022-11-24T06:15:26.187Z,4.80
2022-11-24T06:17:55.959Z,4.80
2022-11-24T06:20:29.726Z,4.70
2022-11-24T06:23:02.435Z,4.70
2022-11-24T06:25:30.938Z,4.70
2022-11-24T06:27:58.975Z,4.70
2022-11-24T06:30:27.093Z,4.70
2022-11-24T06:32:56.520Z,4.70
2022-11-24T06:35:25.108Z,4.70
2022-11-24T06:37:53.154Z,4.70
2022-11-24T06:40:22.624Z,4.70
2022-11-24T06:42:53.466Z,4.70
2022-11-24T06:45:21.520Z,4.70
2022-11-24T06:47:49.587Z,4.70
2022-11-24T06:50:18.023Z,4.80
2022-11-24T06:52:46.058Z,4.80
2022-11-24T06:55:14.148Z,4.80
2022-11-24T06:57:43.588Z,4.80
2022-11-24T07:00:12.563Z,4.90
2022-11-24T07:02:45.647Z,4.90
2022-11-24T07:05:14.315Z,4.90
2022-11-24T07:07:42.501Z,4.90
2022-11-24T07:10:11.007Z,4.90
2022-11-24T07:12:39.064Z,5.00
2022-11-24T07:15:09.977Z,5.00
2022-11-24T07:17:38.272Z,5.00
2022-11-24T07:20:08.914Z,5.00
2022-11-24T07:22:37.053Z,5.00
2022-11-24T07:25:07.549Z,5.10
2022-11-24T07:27:35.624Z,5.10
2022-11-24T07:30:04.423Z,5.10
2022-11-24T07:32:33.974Z,5.20
2022-11-24T07:35:02.033Z,5.20
2022-11-24T07:37:31.904Z,5.20
2022-11-24T07:40:00.127Z,5.20
2022-11-24T07:42:29.181Z,5.30
2022-11-24T07:44:57.315Z,5.30
2022-11-24T07:47:25.465Z,5.30
2022-11-24T07:49:54.941Z,5.30
2022-11-24T07:52:26.510Z,5.40
2022-11-24T07:54:54.576Z,5.40
2022-11-24T07:57:23.437Z,5.40
2022-11-24T07:59:51.584Z,5.50
2022-11-24T08:02:19.641Z,5.50
2022-11-24T08:04:52.598Z,5.60
2022-11-24T08:07:22.255Z,5.60
2022-11-24T08:09:52.208Z,5.70
2022-11-24T08:12:22.127Z,5.70
2022-11-24T08:14:50.804Z,5.80
2022-11-24T08:17:19.215Z,5.90
2022-11-24T08:19:47.300Z,5.90
2022-11-24T08:22:15.386Z,6.00
2022-11-24T08:24:47.625Z,6.10
2022-11-24T08:27:17.201Z,6.10
2022-11-24T08:29:45.689Z,6.20
2022-11-24T08:32:18.870Z,6.20
2022-11-24T08:34:50.092Z,6.30
2022-11-24T08:37:18.201Z,6.30
2022-11-24T08:39:47.690Z,6.30
2022-11-24T08:42:15.984Z,6.40
2022-11-24T08:44:44.121Z,6.50
2022-11-24T08:47:12.233Z,6.60
2022-11-24T08:49:40.339Z,6.60
2022-11-24T08:52:08.782Z,6.70
2022-11-24T08:54:37.276Z,6.80
2022-11-24T08:57:07.190Z,6.90
2022-11-24T08:59:35.426Z,7.00
2022-11-24T09:02:03.668Z,7.10
2022-11-24T09:04:56.901Z,7.10
2022-11-24T09:07:26.252Z,7.20
2022-11-24T09:09:54.952Z,7.30
2022-11-24T09:12:24.368Z,7.30
2022-11-24T09:14:52.479Z,7.30
2022-11-24T09:17:20.603Z,7.40
2022-11-24T09:19:48.783Z,7.50
2022-11-24T09:22:19.110Z,7.60
2022-11-24T09:24:47.365Z,7.70
2022-11-24T09:27:16.766Z,7.80
2022-11-24T09:29:46.255Z,7.80
2022-11-24T09:32:14.468Z,7.80
2022-11-24T09:34:42.665Z,7.90
2022-11-24T09:37:10.739Z,7.90
2022-11-24T09:39:38.838Z,8.00
2022-11-24T09:42:15.260Z,8.00
2022-11-24T09:45:15.248Z,8.10
2022-11-24T09:47:54.272Z,8.10
2022-11-24T09:50:24.727Z,8.20
2022-11-24T09:53:01.383Z,8.20
2022-11-24T09:55:41.242Z,8.40
2022-11-24T09:58:29.804Z,8.60
2022-11-24T10:01:00.452Z,8.60
2022-11-24T10:03:33.806Z,8.70
2022-11-24T10:06:05.783Z,8.80
2022-11-24T10:08:49.442Z,8.80
2022-11-24T10:11:32.903Z,8.80
2022-11-24T10:14:25.176Z,8.80
2022-11-24T10:17:03.129Z,8.80
2022-11-24T10:19:41.341Z,8.80
2022-11-24T10:22:36.433Z,8.80
2022-11-24T10:25:18.402Z,8.90
2022-11-24T10:27:49.312Z,8.90
2022-11-24T10:30:19.522Z,8.90
2022-11-24T10:32:51.184Z,8.90
2022-11-24T10:35:21.688Z,8.90
2022-11-24T10:38:01.892Z,8.90
2022-11-24T10:43:27.387Z,9.00
2022-11-24T10:45:56.416Z,9.10
2022-11-24T10:48:28.274Z,9.20
2022-11-24T10:51:06.626Z,9.20
2022-11-24T10:53:39.721Z,9.30
2022-11-24T10:56:08.214Z,9.40
2022-11-24T10:58:38.411Z,9.40
2022-11-24T11:01:22.886Z,9.50
2022-11-24T11:03:54.810Z,9.70
2022-11-24T11:06:24.730Z,9.70
2022-11-24T11:09:19.047Z,9.70
2022-11-24T11:11:48.349Z,9.80
2022-11-24T11:14:31.530Z,9.90
2022-11-24T11:17:00.254Z,9.90
2022-11-24T11:19:54.400Z,9.90
2022-11-24T11:22:28.154Z,9.90
2022-11-24T11:25:07.148Z,9.80
2022-11-24T11:27:35.280Z,9.70
2022-11-24T11:36:14.409Z,9.50
2022-11-24T11:38:43.773Z,9.50
2022-11-24T11:41:20.149Z,9.40
2022-11-24T11:43:53.469Z,9.30
2022-11-24T11:46:22.520Z,9.30
2022-11-24T11:48:50.674Z,9.20
2022-11-24T11:51:34.767Z,9.10
2022-11-24T11:54:10.652Z,9.10
2022-11-24T11:56:44.454Z,9.00
2022-11-24T11:59:47.886Z,9.00
2022-11-24T12:02:53.940Z,9.00
2022-11-24T12:05:32.019Z,9.00
2022-11-24T12:08:20.668Z,9.00
2022-11-24T12:10:59.420Z,9.00
2022-11-24T12:13:46.261Z,9.00
2022-11-24T12:16:35.637Z,8.90
2022-11-24T12:19:29.386Z,8.90
2022-11-24T12:22:08.793Z,8.90
2022-11-24T12:24:46.595Z,8.90
2022-11-24T12:27:23.476Z,8.90
2022-11-24T12:30:11.378Z,8.90
2022-11-24T12:32:53.822Z,8.80
2022-11-24T12:35:27.973Z,8.80
2022-11-24T12:38:04.512Z,8.80
2022-11-24T12:40:48.271Z,8.80
2022-11-24T12:43:24.280Z,8.80
2022-11-24T12:45:57.889Z,8.80
2022-11-24T12:48:39.960Z,8.80
2022-11-24T12:51:16.672Z,8.70
2022-11-24T12:53:49.181Z,8.60
2022-11-24T12:56:25.595Z,8.50
2022-11-24T12:58:59.695Z,8.40
2022-11-24T13:01:37.131Z,8.40
2022-11-24T13:04:13.708Z,8.40
2022-11-24T13:06:52.922Z,8.40
2022-11-24T13:09:21.601Z,8.30
2022-11-24T13:11:52.047Z,8.40
2022-11-24T13:14:23.497Z,8.40
2022-11-24T13:19:45.877Z,8.40
2022-11-24T13:22:24.299Z,8.30
2022-11-24T13:25:14.429Z,8.30
2022-11-24T13:27:46.556Z,8.30
2022-11-24T13:30:53.870Z,8.20
2022-11-24T13:33:36.558Z,8.10
2022-11-24T13:36:34.354Z,8.10
2022-11-24T13:39:04.253Z,8.10
2022-11-24T13:42:42.175Z,8.10
2022-11-24T13:45:02.045Z,8.10
2022-11-24T13:47:39.439Z,8.10
2022-11-24T13:50:15.589Z,8.10
2022-11-24T13:52:49.522Z,8.10
2022-11-24T13:55:33.628Z,8.10
2022-11-24T13:58:22.691Z,8.10
2022-11-24T14:01:03.998Z,8.00
2022-11-24T14:03:35.665Z,8.00
2022-11-24T14:06:04.434Z,8.00
2022-11-24T14:08:34.860Z,8.00
2022-11-24T14:11:04.702Z,8.00
2022-11-24T14:13:34.424Z,8.00
2022-11-24T14:16:14.886Z,8.00
2022-11-24T14:18:44.654Z,7.90
2022-11-24T14:21:31.184Z,7.90
2022-11-24T14:24:01.502Z,8.00
2022-11-24T14:26:34.271Z,8.00
2022-11-24T14:29:07.500Z,8.00
2022-11-24T14:31:37.235Z,8.00
2022-11-24T14:34:15.969Z,8.00
2022-11-24T14:36:44.644Z,8.10
2022-11-24T14:39:16.364Z,8.30
2022-11-24T14:41:51.729Z,8.40
2022-11-24T14:44:24.066Z,8.40
2022-11-24T14:47:03.192Z,8.50
2022-11-24T14:49:32.523Z,8.50
2022-11-24T14:52:04.439Z,8.50
2022-11-24T14:54:33.398Z,8.50
2022-11-24T14:57:04.617Z,8.40
2022-11-24T14:59:36.008Z,8.50
2022-11-24T15:02:40.551Z,8.50
2022-11-24T15:05:08.918Z,8.50
2022-11-24T15:07:38.740Z,8.50
2022-11-24T15:10:19.248Z,8.50
2022-11-24T15:12:53.388Z,8.50
2022-11-24T15:15:24.855Z,8.50
2022-11-24T15:17:56.635Z,8.50
2022-11-24T15:20:28.712Z,8.50
2022-11-24T15:23:25.067Z,8.60
2022-11-24T15:25:54.246Z,8.60
2022-11-24T15:28:25.839Z,8.60
2022-11-24T15:30:55.165Z,8.50
2022-11-24T15:33:25.161Z,8.60
2022-11-24T15:35:53.701Z,8.50
2022-11-24T15:38:22.196Z,8.50
2022-11-24T15:40:51.893Z,8.40
2022-11-24T15:43:29.835Z,8.40
2022-11-24T15:45:58.978Z,8.40
2022-11-24T15:48:28.982Z,8.30
2022-11-24T15:50:58.422Z,8.30
2022-11-24T15:53:31.512Z,8.20
2022-11-24T15:56:01.127Z,8.20
2022-11-24T15:58:54.931Z,8.20
2022-11-24T16:01:24.379Z,8.10
2022-11-24T16:03:53.895Z,8.10
2022-11-24T16:06:25.025Z,8.10
2022-11-24T16:08:53.505Z,8.10
2022-11-24T16:11:21.554Z,8.10
2022-11-24T16:13:52.906Z,8.00
2022-11-24T16:16:23.230Z,8.00
2022-11-24T16:18:52.844Z,7.90
2022-11-24T16:21:21.006Z,7.90
2022-11-24T16:23:49.058Z,7.90
2022-11-24T16:26:17.073Z,7.90
2022-11-24T16:28:46.001Z,7.90
2022-11-24T16:31:15.883Z,7.90
2022-11-24T16:33:46.249Z,7.90
2022-11-24T16:36:15.925Z,7.90
2022-11-24T16:38:44.849Z,7.90
2022-11-24T16:41:13.187Z,7.70
2022-11-24T16:43:41.343Z,7.70
2022-11-24T16:46:21.165Z,7.60
2022-11-24T16:48:51.478Z,7.60
2022-11-24T16:51:23.352Z,7.60
2022-11-24T16:53:58.523Z,7.60
2022-11-24T16:56:26.747Z,7.60
2022-11-24T16:58:54.911Z,7.60
2022-11-24T17:01:23.751Z,7.50
2022-11-24T17:03:51.931Z,7.50
2022-11-24T17:06:21.633Z,7.40
2022-11-24T17:08:49.761Z,7.40
2022-11-24T17:11:20.505Z,7.40
2022-11-24T17:13:49.228Z,7.30
2022-11-24T17:16:18.854Z,7.30
2022-11-24T17:18:47.796Z,7.30
2022-11-24T17:21:24.987Z,7.30
2022-11-24T17:23:56.046Z,7.20
2022-11-24T17:26:24.876Z,7.20
2022-11-24T17:28:53.259Z,7.10
2022-11-24T17:31:22.997Z,7.10
2022-11-24T17:33:51.776Z,7.20
2022-11-24T17:36:19.872Z,7.30
2022-11-24T17:38:50.274Z,7.30
2022-11-24T17:41:18.729Z,7.30
2022-11-24T17:43:50.206Z,7.40
2022-11-24T17:46:18.534Z,7.30
2022-11-24T17:48:47.817Z,7.30
2022-11-24T17:51:17.468Z,7.30
2022-11-24T17:53:47.023Z,7.20
2022-11-24T17:56:18.123Z,7.10
2022-11-24T17:58:46.267Z,7.10
2022-11-24T18:01:14.826Z,7.00
2022-11-24T18:03:42.984Z,7.00
2022-11-24T18:06:12.667Z,7.00
2022-11-24T18:08:43.278Z,6.90
2022-11-24T18:11:13.313Z,6.90
2022-11-24T18:14:01.082Z,6.90
2022-11-24T18:16:32.972Z,7.00
2022-11-24T18:19:11.045Z,7.00
2022-11-24T18:21:41.286Z,6.90
2022-11-24T18:24:12.262Z,7.00
2022-11-24T18:26:41.262Z,7.00
2022-11-24T18:29:11.716Z,7.00
2022-11-24T18:31:40.390Z,7.00
2022-11-24T18:34:09.384Z,7.00
2022-11-24T18:36:37.432Z,7.00
2022-11-24T18:39:07.882Z,7.00
2022-11-24T18:41:36.438Z,7.00
2022-11-24T18:44:08.114Z,7.00
2022-11-24T18:46:38.155Z,7.10
2022-11-24T18:49:07.583Z,7.10
2022-11-24T18:51:36.010Z,7.10
2022-11-24T18:54:05.341Z,7.10
2022-11-24T18:56:33.766Z,7.10
2022-11-24T18:59:01.759Z,7.10
2022-11-24T19:01:30.682Z,7.10
2022-11-24T19:04:02.895Z,7.10
2022-11-24T19:06:33.085Z,7.10
2022-11-24T19:09:02.511Z,7.10
2022-11-24T19:11:33.681Z,7.10
2022-11-24T19:14:02.577Z,7.10
2022-11-24T19:16:31.088Z,7.10
2022-11-24T19:19:02.720Z,7.10
2022-11-24T19:21:32.767Z,7.20
2022-11-24T19:24:05.014Z,7.20
2022-11-24T19:26:35.010Z,7.20
2022-11-24T19:29:03.709Z,7.10
2022-11-24T19:31:32.143Z,7.10
2022-11-24T19:34:03.107Z,7.10
2022-11-24T19:36:31.543Z,7.20
2022-11-24T19:39:00.144Z,7.10
2022-11-24T19:41:30.678Z,7.10
2022-11-24T19:43:59.389Z,7.10
2022-11-24T19:46:29.724Z,7.10
2022-11-24T19:49:02.430Z,7.10
2022-11-24T19:51:33.403Z,7.10
2022-11-24T19:54:02.729Z,7.10
2022-11-24T19:56:32.298Z,7.10
2022-11-24T19:59:00.404Z,7.00
2022-11-24T20:01:30.930Z,7.10
2022-11-24T20:04:02.103Z,7.10
2022-11-24T20:06:32.151Z,7.10
2022-11-24T20:09:01.456Z,7.10
2022-11-24T20:11:30.150Z,7.10
2022-11-24T20:13:58.791Z,7.10
2022-11-24T20:16:29.701Z,7.10
2022-11-24T20:18:59.515Z,7.10
2022-11-24T20:21:31.169Z,7.00
2022-11-24T20:24:02.954Z,7.00
2022-11-24T20:26:33.899Z,7.00
2022-11-24T20:29:02.545Z,7.00
2022-11-24T20:31:32.687Z,7.10
2022-11-24T20:34:01.303Z,7.10
2022-11-24T20:36:34.351Z,7.10
2022-11-24T20:39:05.998Z,7.10
2022-11-24T20:41:35.656Z,7.00
2022-11-24T20:44:07.169Z,7.00
2022-11-24T20:46:37.500Z,7.10
2022-11-24T20:49:07.566Z,7.10
2022-11-24T20:51:41.975Z,7.10
2022-11-24T20:54:10.893Z,7.10
2022-11-24T20:56:40.936Z,7.10
2022-11-24T20:59:09.559Z,7.00
2022-11-24T21:01:39.355Z,7.00
2022-11-24T21:04:10.122Z,7.00
2022-11-24T21:06:40.319Z,7.00
2022-11-24T21:09:10.065Z,6.90
2022-11-24T21:11:39.571Z,6.80
2022-11-24T21:14:08.864Z,6.80
2022-11-24T21:16:39.726Z,6.80
2022-11-24T21:19:14.952Z,6.70
2022-11-24T21:21:44.425Z,6.70
2022-11-24T21:24:15.429Z,6.70
2022-11-24T21:26:47.322Z,6.70
2022-11-24T21:29:17.300Z,6.70
2022-11-24T21:31:45.438Z,6.60
2022-11-24T21:34:18.389Z,6.70
2022-11-24T21:36:48.270Z,6.60
2022-11-24T21:39:16.798Z,6.70
2022-11-24T21:41:44.945Z,6.60
2022-11-24T21:44:13.746Z,6.60
2022-11-24T21:46:46.178Z,6.60
2022-11-24T21:49:18.065Z,6.60
2022-11-24T21:51:48.105Z,6.60
2022-11-24T21:54:16.315Z,6.70
2022-11-24T21:56:44.335Z,6.70
2022-11-24T21:59:12.406Z,6.70
2022-11-24T22:01:40.598Z,6.60
2022-11-24T22:04:08.745Z,6.60
2022-11-24T22:06:36.816Z,6.60
2022-11-24T22:09:06.168Z,6.60
2022-11-24T22:11:34.274Z,6.60
2022-11-24T22:14:02.241Z,6.60
2022-11-24T22:16:30.772Z,6.60
2022-11-24T22:19:00.887Z,6.60
2022-11-24T22:21:30.745Z,6.60
2022-11-24T22:23:58.843Z,6.60
2022-11-24T22:26:29.168Z,6.60
2022-11-24T22:28:58.559Z,6.60
2022-11-24T22:31:28.104Z,6.50
2022-11-24T22:33:57.345Z,6.50
2022-11-24T22:36:27.587Z,6.50
2022-11-24T22:38:57.051Z,6.50
2022-11-24T22:41:26.002Z,6.50
2022-11-24T22:43:55.548Z,6.40
2022-11-24T22:46:24.938Z,6.40
2022-11-24T22:48:54.823Z,6.40
2022-11-24T22:51:25.303Z,6.50
2022-11-24T22:53:54.990Z,6.50
2022-11-24T22:56:23.811Z,6.50
2022-11-24T22:58:52.439Z,6.50
2022-11-24T23:01:23.155Z,6.40
2022-11-24T23:03:53.810Z,6.40
2022-11-24T23:06:23.647Z,6.40
2022-11-24T23:08:52.613Z,6.40
2022-11-24T23:11:27.867Z,6.40
2022-11-24T23:14:01.279Z,6.40
2022-11-24T23:16:31.134Z,6.30
2022-11-24T23:18:59.583Z,6.30
2022-11-24T23:21:30.118Z,6.30
2022-11-24T23:24:00.780Z,6.20
2022-11-24T23:26:30.918Z,6.20
2022-11-24T23:28:59.151Z,6.20
2022-11-24T23:31:29.168Z,6.20
2022-11-24T23:33:59.727Z,6.10
2022-11-24T23:36:29.035Z,6.10
2022-11-24T23:38:57.447Z,6.10
2022-11-24T23:41:26.769Z,6.00
2022-11-24T23:43:54.856Z,5.90
2022-11-24T23:46:25.205Z,5.80
2022-11-24T23:48:55.130Z,5.70
2022-11-24T23:51:27.521Z,5.60
2022-11-24T23:53:56.429Z,5.60
2022-11-24T23:56:26.453Z,5.50
2022-11-24T23:58:54.722Z,5.40
